Time;durP1;ratioP1;P1;durP2;ratioP2;P2;SDS_P1;SDS_P2;PMS_P1;PMS_P2;Temp;Humidity;BMP_temperature;BMP_pressure;BME280_temperature;BME280_humidity;BME280_pressure;Samples;Min_cycle;Max_cycle;Signal;HPM_P1;HPM_P2
2021/05/21 00:01:24;;;;;;;6.93;5.10;;;10.30;99.90;;;;;;4155129;28;20501;-69
2021/05/21 00:03:25;;;;;;;5.80;5.20;;;10.30;99.90;;;;;;4155196;28;20049;-67
2021/05/21 00:05:26;;;;;;;5.80;4.50;;;10.30;99.90;;;;;;4155351;28;20026;-59
2021/05/21 00:07:29;;;;;;;7.77;4.93;;;10.30;99.90;;;;;;4154938;28;20107;-60
2021/05/21 00:09:30;;;;;;;7.27;5.43;;;10.30;99.90;;;;;;4155211;28;20156;-60
2021/05/21 00:11:31;;;;;;;5.87;4.63;;;10.30;99.90;;;;;;4155055;28;20103;-60
2021/05/21 00:13:32;;;;;;;4.23;3.90;;;10.30;99.90;;;;;;4154959;28;20087;-60
2021/05/21 00:15:33;;;;;;;5.50;4.27;;;10.30;99.90;;;;;;4154837;28;20099;-60
2021/05/21 00:17:35;;;;;;;4.83;4.33;;;10.30;99.90;;;;;;4155454;28;20071;-60
2021/05/21 00:19:36;;;;;;;7.30;4.23;;;10.30;99.90;;;;;;4155061;28;20259;-62
2021/05/21 00:21:37;;;;;;;6.97;4.43;;;10.30;99.90;;;;;;4155516;28;20084;-61
2021/05/21 00:23:39;;;;;;;5.03;4.53;;;10.30;99.90;;;;;;4155209;28;20474;-61
2021/05/21 00:25:40;;;;;;;4.47;3.93;;;10.30;99.90;;;;;;4155835;28;20075;-62
2021/05/21 00:27:41;;;;;;;5.47;4.70;;;10.30;99.90;;;;;;4154660;28;21244;-61
2021/05/21 00:29:43;;;;;;;4.73;4.30;;;10.30;99.90;;;;;;4155077;28;20104;-61
2021/05/21 00:31:44;;;;;;;5.73;4.20;;;10.30;99.90;;;;;;4155176;28;20029;-60
2021/05/21 00:33:45;;;;;;;4.83;4.20;;;10.30;99.90;;;;;;4155006;28;20079;-62
2021/05/21 00:35:46;;;;;;;6.77;4.10;;;10.30;99.90;;;;;;4154876;28;20678;-61
2021/05/21 00:37:47;;;;;;;4.93;4.43;;;10.30;99.90;;;;;;4155164;28;20033;-67
2021/05/21 00:39:49;;;;;;;7.13;3.97;;;10.30;99.90;;;;;;4154539;28;20802;-67
2021/05/21 00:41:50;;;;;;;6.63;4.47;;;10.30;99.90;;;;;;4155212;28;20033;-71
2021/05/21 00:43:56;;;;;;;8.60;4.23;;;10.30;99.90;;;;;;4155138;28;20479;-63
2021/05/21 00:45:57;;;;;;;5.40;4.13;;;10.30;99.90;;;;;;4154703;28;20033;-71
2021/05/21 00:47:58;;;;;;;8.60;4.57;;;10.40;99.90;;;;;;4155035;28;20262;-69
2021/05/21 00:49:59;;;;;;;4.90;3.80;;;10.30;99.90;;;;;;4154353;28;20658;-71
2021/05/21 00:52:05;;;;;;;7.73;4.50;;;10.30;99.90;;;;;;4155039;28;20029;-59
2021/05/21 00:54:07;;;;;;;4.90;4.37;;;10.30;99.90;;;;;;4154906;28;20084;-61
2021/05/21 00:56:08;;;;;;;5.90;4.17;;;10.30;99.90;;;;;;4155055;28;20083;-62
2021/05/21 00:58:09;;;;;;;6.73;3.60;;;10.30;99.90;;;;;;4153932;28;20045;-63
2021/05/21 01:00:11;;;;;;;5.53;3.93;;;10.30;99.90;;;;;;4155224;28;20084;-71
2021/05/21 01:02:13;;;;;;;4.53;4.13;;;10.40;99.90;;;;;;4154431;28;20061;-61
2021/05/21 01:04:14;;;;;;;5.13;4.43;;;10.30;99.90;;;;;;4153600;28;20445;-61
2021/05/21 01:06:16;;;;;;;5.90;4.47;;;10.30;99.90;;;;;;4154598;28;20087;-60
2021/05/21 01:08:18;;;;;;;5.40;4.53;;;10.40;99.90;;;;;;4154636;28;20960;-60
2021/05/21 01:10:19;;;;;;;4.30;3.83;;;10.30;99.90;;;;;;4154810;28;20474;-61
2021/05/21 01:12:21;;;;;;;5.10;4.57;;;10.40;99.90;;;;;;4138674;28;20038;-61
2021/05/21 01:14:22;;;;;;;5.83;4.17;;;10.40;99.90;;;;;;4138387;28;20029;-61
2021/05/21 01:16:23;;;;;;;6.80;4.47;;;10.40;99.90;;;;;;4138600;28;20042;-61
2021/05/21 01:18:25;;;;;;;5.33;4.13;;;10.40;99.90;;;;;;4138182;28;20100;-60
2021/05/21 01:20:31;;;;;;;6.00;4.20;;;10.40;99.90;;;;;;4149785;28;20107;-61
2021/05/21 01:22:32;;;;;;;6.20;4.30;;;10.40;99.90;;;;;;4154517;28;20029;-62
2021/05/21 01:24:33;;;;;;;5.17;4.47;;;10.40;99.90;;;;;;4157692;28;20025;-60
2021/05/21 01:26:36;;;;;;;6.30;4.00;;;10.40;99.90;;;;;;4157541;28;20103;-61
2021/05/21 01:28:38;;;;;;;5.80;4.47;;;10.40;99.90;;;;;;4157416;28;20033;-61
2021/05/21 01:30:39;;;;;;;6.73;4.53;;;10.40;99.90;;;;;;4157959;28;20099;-61
2021/05/21 01:32:41;;;;;;;5.50;4.40;;;10.40;99.90;;;;;;4156940;28;20068;-61
2021/05/21 01:34:42;;;;;;;5.23;4.37;;;10.40;99.90;;;;;;4157538;28;20034;-60
2021/05/21 01:36:44;;;;;;;6.27;4.60;;;10.40;99.90;;;;;;4156933;28;20951;-59
2021/05/21 01:39:14;;;;;;;5.43;4.57;;;10.40;99.90;;;;;;4157763;28;20041;-61
2021/05/21 01:41:15;;;;;;;8.15;5.15;;;10.40;99.90;;;;;;4144388;28;20445;-61
2021/05/21 01:43:16;;;;;;;5.13;4.33;;;10.40;99.90;;;;;;4158047;28;20585;-61
2021/05/21 01:45:18;;;;;;;5.33;3.90;;;10.40;99.90;;;;;;4157361;28;20083;-61
2021/05/21 01:47:19;;;;;;;9.90;4.80;;;10.40;99.90;;;;;;4157455;28;20555;-61
2021/05/21 01:49:20;;;;;;;6.27;4.77;;;10.40;99.90;;;;;;4156600;28;20041;-61
2021/05/21 01:51:23;;;;;;;4.77;4.27;;;10.40;99.90;;;;;;4157727;28;20527;-61
2021/05/21 01:53:24;;;;;;;5.10;4.50;;;10.40;99.90;;;;;;4156969;28;20033;-61
2021/05/21 01:55:25;;;;;;;5.97;4.73;;;10.30;99.90;;;;;;4157484;28;20159;-61
2021/05/21 01:57:26;;;;;;;5.17;4.60;;;10.30;99.90;;;;;;4156909;28;20037;-61
2021/05/21 01:59:27;;;;;;;6.63;4.20;;;10.30;99.90;;;;;;4157169;28;20033;-61
2021/05/21 02:01:29;;;;;;;5.03;4.17;;;10.30;99.90;;;;;;4156930;28;20554;-61
2021/05/21 02:03:31;;;;;;;5.87;3.77;;;10.30;99.90;;;;;;4156789;28;20529;-63
2021/05/21 02:05:32;;;;;;;5.60;4.03;;;10.30;99.90;;;;;;4157339;28;20033;-59
2021/05/21 02:07:33;;;;;;;5.63;4.53;;;10.30;99.90;;;;;;4156865;28;20041;-70
2021/05/21 02:09:50;;;;;;;4.97;4.47;;;10.30;99.90;;;;;;4155227;28;20059;-66
2021/05/21 02:11:51;;;;;;;9.00;4.63;;;10.30;99.90;;;;;;4156695;28;20025;-70
2021/05/21 02:13:52;;;;;;;6.80;4.60;;;10.30;99.90;;;;;;4156494;28;20091;-67
2021/05/21 02:15:53;;;;;;;5.13;4.33;;;10.30;99.90;;;;;;4156322;28;20053;-63
2021/05/21 02:17:54;;;;;;;5.13;4.50;;;10.30;99.90;;;;;;4157471;28;20528;-65
2021/05/21 02:19:58;;;;;;;5.07;4.57;;;10.30;99.90;;;;;;4156767;28;20038;-61
2021/05/21 02:21:59;;;;;;;7.93;4.80;;;10.30;99.90;;;;;;4156996;28;20049;-66
2021/05/21 02:24:02;;;;;;;6.97;5.13;;;10.30;99.90;;;;;;4156541;28;20037;-60
2021/05/21 02:26:03;;;;;;;6.63;5.00;;;10.30;99.90;;;;;;4157349;28;20067;-60
2021/05/21 02:28:04;;;;;;;8.30;4.93;;;10.30;99.90;;;;;;4156081;28;20087;-61
2021/05/21 02:30:07;;;;;;;4.97;4.43;;;10.30;99.90;;;;;;4157048;28;20041;-60
2021/05/21 02:32:08;;;;;;;6.53;4.73;;;10.30;99.90;;;;;;4156576;28;20084;-60
2021/05/21 02:34:09;;;;;;;7.57;4.50;;;10.30;99.90;;;;;;4155205;28;20038;-61
2021/05/21 02:36:10;;;;;;;6.77;4.97;;;10.30;99.90;;;;;;4156340;28;20053;-60
2021/05/21 02:38:12;;;;;;;6.63;4.43;;;10.30;99.90;;;;;;4156298;28;20033;-60
2021/05/21 02:40:13;;;;;;;5.10;4.47;;;10.30;99.90;;;;;;4156264;28;20029;-58
2021/05/21 02:42:14;;;;;;;7.07;4.80;;;10.30;99.90;;;;;;4156967;28;20498;-60
2021/05/21 02:44:15;;;;;;;7.67;4.80;;;10.30;99.90;;;;;;4156651;28;20033;-60
2021/05/21 02:46:17;;;;;;;8.07;4.63;;;10.30;99.90;;;;;;4156367;28;20037;-67
2021/05/21 02:48:18;;;;;;;6.93;5.13;;;10.20;99.90;;;;;;4156562;28;20033;-59
2021/05/21 02:50:19;;;;;;;9.60;5.10;;;10.30;99.90;;;;;;4155925;28;20045;-61
2021/05/21 02:52:22;;;;;;;7.10;4.77;;;10.20;99.90;;;;;;4156099;28;20092;-61
2021/05/21 02:54:23;;;;;;;6.33;5.07;;;10.20;99.90;;;;;;4156431;28;20509;-65
2021/05/21 02:56:24;;;;;;;5.87;5.13;;;10.20;99.90;;;;;;4155498;28;20037;-71
2021/05/21 02:58:25;;;;;;;6.23;5.17;;;10.30;99.90;;;;;;4156018;28;20111;-70
2021/05/21 03:00:26;;;;;;;7.27;5.00;;;10.30;99.90;;;;;;4156027;28;20095;-66
2021/05/21 03:02:27;;;;;;;6.27;4.80;;;10.30;99.90;;;;;;4155142;28;20646;-65
2021/05/21 03:04:30;;;;;;;8.67;5.10;;;10.40;99.90;;;;;;4139331;28;20494;-65
2021/05/21 03:06:31;;;;;;;13.03;5.70;;;10.40;99.90;;;;;;4142742;28;20567;-70
2021/05/21 03:08:32;;;;;;;7.47;4.60;;;10.40;99.90;;;;;;4155550;28;20100;-57
2021/05/21 03:10:33;;;;;;;5.80;4.83;;;10.40;99.90;;;;;;4155930;28;20037;-61
2021/05/21 03:12:34;;;;;;;5.50;4.87;;;10.50;99.90;;;;;;4155774;28;20083;-61
2021/05/21 03:14:36;;;;;;;8.03;5.43;;;10.40;99.90;;;;;;4156063;28;20026;-59
2021/05/21 03:16:37;;;;;;;6.87;4.90;;;10.40;99.90;;;;;;4156059;28;20087;-62
2021/05/21 03:18:39;;;;;;;6.83;5.27;;;10.40;99.90;;;;;;4155816;28;20049;-60
2021/05/21 03:20:41;;;;;;;6.23;5.63;;;10.50;99.90;;;;;;4155401;28;20033;-59
2021/05/21 03:22:42;;;;;;;9.47;5.30;;;10.50;99.90;;;;;;4156246;28;20141;-72
2021/05/21 03:24:43;;;;;;;7.33;5.07;;;10.50;99.90;;;;;;4156339;28;20033;-68
2021/05/21 03:26:44;;;;;;;6.73;4.70;;;10.50;99.90;;;;;;4156088;28;20359;-72
2021/05/21 03:28:45;;;;;;;6.83;5.13;;;10.60;99.90;;;;;;4155452;28;20107;-65
2021/05/21 03:30:47;;;;;;;10.83;5.93;;;10.60;99.90;;;;;;4155618;28;20084;-69
2021/05/21 03:32:48;;;;;;;11.57;6.97;;;10.60;99.90;;;;;;4155705;28;20044;-70
2021/05/21 03:34:49;;;;;;;5.63;5.03;;;10.60;99.90;;;;;;4155738;28;20090;-66
2021/05/21 03:36:51;;;;;;;5.47;4.53;;;10.60;99.90;;;;;;4155468;28;20041;-67
2021/05/21 03:38:52;;;;;;;6.93;5.37;;;10.60;99.90;;;;;;4155397;28;20033;-61
2021/05/21 03:40:54;;;;;;;6.73;5.07;;;10.60;99.90;;;;;;4155216;28;20068;-61
2021/05/21 03:42:55;;;;;;;8.83;5.17;;;10.60;99.90;;;;;;4155495;28;20029;-61
2021/05/21 03:44:56;;;;;;;8.23;5.30;;;10.70;99.90;;;;;;4155441;28;20083;-62
2021/05/21 03:47:01;;;;;;;6.77;5.30;;;10.80;99.90;;;;;;4153095;28;20974;-62
2021/05/21 03:49:02;;;;;;;5.70;4.70;;;11.10;99.90;;;;;;4155657;28;20029;-67
2021/05/21 03:51:03;;;;;;;8.83;5.40;;;11.30;99.90;;;;;;4155339;28;20029;-59
2021/05/21 03:53:05;;;;;;;7.57;4.63;;;11.60;99.90;;;;;;4155623;28;20025;-61
2021/05/21 03:55:10;;;;;;;6.83;4.87;;;11.70;99.90;;;;;;4155783;28;20061;-61
2021/05/21 03:57:11;;;;;;;6.23;4.90;;;11.80;99.90;;;;;;4155002;28;20045;-62
2021/05/21 03:59:12;;;;;;;5.90;4.10;;;12.30;99.90;;;;;;4155218;28;20029;-62
2021/05/21 04:01:13;;;;;;;6.90;5.10;;;13.00;99.90;;;;;;4154826;28;20076;-61
2021/05/21 04:03:14;;;;;;;7.43;3.80;;;13.40;99.90;;;;;;4154774;28;20054;-62
2021/05/21 04:05:17;;;;;;;5.03;4.00;;;13.40;99.90;;;;;;4154735;28;20064;-61
2021/05/21 04:07:18;;;;;;;11.00;5.03;;;13.80;99.90;;;;;;4154802;28;20033;-61
2021/05/21 04:09:20;;;;;;;9.17;3.80;;;14.20;99.90;;;;;;4154824;28;20429;-61
2021/05/21 04:11:21;;;;;;;5.30;4.33;;;14.40;99.90;;;;;;4154942;28;20429;-61
2021/05/21 04:13:22;;;;;;;4.80;3.60;;;14.40;99.90;;;;;;4152797;28;20080;-65
2021/05/21 04:15:23;;;;;;;5.23;3.87;;;14.50;99.90;;;;;;4153018;28;20059;-61
2021/05/21 04:17:25;;;;;;;7.27;3.97;;;14.20;99.90;;;;;;4154893;28;20037;-62
2021/05/21 04:19:26;;;;;;;3.60;3.30;;;13.90;99.90;;;;;;4154409;28;20041;-64
2021/05/21 04:21:27;;;;;;;4.00;3.27;;;13.80;99.90;;;;;;4154499;28;20599;-62
2021/05/21 04:23:28;;;;;;;5.50;3.80;;;13.80;99.90;;;;;;4155043;28;20524;-62
2021/05/21 04:25:29;;;;;;;7.90;4.53;;;13.70;99.90;;;;;;4153097;28;20512;-62
2021/05/21 04:27:30;;;;;;;6.87;4.40;;;13.60;99.90;;;;;;4154264;28;20046;-63
2021/05/21 04:29:32;;;;;;;11.37;4.70;;;13.60;99.90;;;;;;4154878;28;20076;-62
2021/05/21 04:31:33;;;;;;;5.53;4.37;;;13.70;99.90;;;;;;4154557;28;20091;-65
2021/05/21 04:33:35;;;;;;;6.33;4.20;;;13.70;99.90;;;;;;4154580;28;20026;-62
2021/05/21 04:35:36;;;;;;;7.07;4.17;;;13.70;99.90;;;;;;4154624;28;20034;-62
2021/05/21 04:37:37;;;;;;;4.00;3.60;;;13.90;99.90;;;;;;4154022;28;20038;-62
2021/05/21 04:39:38;;;;;;;7.73;3.77;;;14.00;99.90;;;;;;4153650;28;20075;-70
2021/05/21 04:41:39;;;;;;;6.20;3.87;;;14.10;99.90;;;;;;4153299;28;20079;-70
2021/05/21 04:43:40;;;;;;;5.60;3.90;;;14.10;99.90;;;;;;4154158;28;20022;-75
2021/05/21 04:45:41;;;;;;;6.90;4.03;;;14.00;99.90;;;;;;4153995;28;20056;-66
2021/05/21 04:47:42;;;;;;;7.23;4.57;;;14.20;99.90;;;;;;4154116;28;20041;-71
2021/05/21 04:49:44;;;;;;;6.27;4.47;;;14.70;99.90;;;;;;4154705;28;20037;-63
2021/05/21 04:51:45;;;;;;;4.87;3.90;;;15.40;99.90;;;;;;4154094;28;20508;-74
2021/05/21 04:53:46;;;;;;;6.35;3.53;;;16.20;99.90;;;;;;4154673;28;20021;-64
2021/05/21 04:55:47;;;;;;;4.30;3.28;;;17.00;99.90;;;;;;4153944;28;20486;-62
2021/05/21 04:57:51;;;;;;;5.72;3.67;;;17.20;99.90;;;;;;4154602;28;20111;-63
2021/05/21 04:59:52;;;;;;;4.28;3.20;;;17.50;99.90;;;;;;4157223;28;20069;-62
2021/05/21 05:01:53;;;;;;;5.55;3.65;;;18.10;99.90;;;;;;4157712;28;20033;-62
2021/05/21 05:03:54;;;;;;;8.05;4.05;;;18.60;99.90;;;;;;4157784;28;20083;-61
2021/05/21 05:05:56;;;;;;;7.75;3.58;;;19.10;99.90;;;;;;4157985;28;20075;-62
2021/05/21 05:07:57;;;;;;;4.25;3.13;;;19.20;99.90;;;;;;4157598;28;20033;-62
2021/05/21 05:09:58;;;;;;;6.88;3.13;;;19.70;99.90;;;;;;4157867;28;20478;-62
2021/05/21 05:12:00;;;;;;;6.95;3.22;;;19.80;99.90;;;;;;4157715;28;20099;-61
2021/05/21 05:14:01;;;;;;;8.98;3.42;;;20.00;99.90;;;;;;4157670;28;20096;-63
2021/05/21 05:16:02;;;;;;;7.72;3.72;;;20.50;99.90;;;;;;4157419;28;20087;-61
2021/05/21 05:18:04;;;;;;;7.72;3.15;;;20.50;99.90;;;;;;4157744;28;21077;-62
2021/05/21 05:20:06;;;;;;;4.22;2.60;;;20.40;99.90;;;;;;4157469;28;20461;-63
2021/05/21 05:22:08;;;;;;;3.28;2.67;;;20.90;99.90;;;;;;4156909;28;20095;-60
2021/05/21 05:24:20;;;;;;;8.45;3.00;;;21.60;99.10;;;;;;4157831;28;20034;-63
2021/05/21 05:26:21;;;;;;;10.30;2.85;;;22.00;94.90;;;;;;4157405;28;20033;-63
2021/05/21 05:28:22;;;;;;;3.92;3.13;;;21.60;95.80;;;;;;4157520;28;20194;-60
2021/05/21 05:30:24;;;;;;;6.97;2.65;;;21.80;95.40;;;;;;4157200;28;20026;-62
2021/05/21 05:32:25;;;;;;;7.70;2.90;;;21.40;95.40;;;;;;4157235;28;20543;-63
2021/05/21 05:34:27;;;;;;;3.28;2.22;;;22.00;94.80;;;;;;4156527;28;20045;-62
2021/05/21 05:36:28;;;;;;;5.07;2.45;;;;;;;;;;4156472;28;20116;-62
2021/05/21 05:38:30;;;;;;;8.30;3.03;;;;;;;;;;4156642;28;20122;-62
2021/05/21 05:40:33;;;;;;;5.05;2.58;;;;;;;;;;4156854;28;20021;-64
2021/05/21 05:42:35;;;;;;;3.53;2.15;;;;;;;;;;4156938;28;20374;-62
2021/05/21 05:44:36;;;;;;;7.07;2.28;;;22.20;94.00;;;;;;4157226;28;20033;-63
2021/05/21 05:46:37;;;;;;;5.05;2.45;;;23.40;87.10;;;;;;4157016;28;20037;-62
2021/05/21 05:48:38;;;;;;;4.25;1.60;;;;;;;;;;4152926;28;20465;-63
2021/05/21 05:50:40;;;;;;;3.28;1.70;;;;;;;;;;4140784;28;20026;-61
2021/05/21 05:52:41;;;;;;;3.65;1.75;;;;;;;;;;4140225;28;20088;-61
2021/05/21 05:54:43;;;;;;;4.70;1.65;;;;;;;;;;4141175;28;20030;-62
2021/05/21 05:56:45;;;;;;;3.67;1.77;;;;;;;;;;4140077;28;20077;-65
2021/05/21 05:58:47;;;;;;;7.63;2.30;;;;;;;;;;4140779;28;20072;-62
2021/05/21 06:00:49;;;;;;;3.53;1.73;;;;;;;;;;4140166;28;20478;-64
2021/05/21 06:02:50;;;;;;;4.25;1.50;;;;;;;;;;4141254;28;20489;-63
2021/05/21 06:04:52;;;;;;;2.10;1.50;;;;;;;;;;4158478;28;20037;-73
2021/05/21 06:06:53;;;;;;;3.53;1.75;;;;;;;;;;4157449;28;20095;-73
2021/05/21 06:08:55;;;;;;;2.20;1.45;;;23.50;85.10;;;;;;4156799;28;20095;-62
2021/05/21 06:10:57;;;;;;;5.15;1.70;;;23.70;74.00;;;;;;4166591;28;20056;-63
2021/05/21 06:13:07;;;;;;;1.88;1.45;;;24.00;73.90;;;;;;4172897;28;20554;-61
2021/05/21 06:15:09;;;;;;;4.22;1.90;;;23.50;70.60;;;;;;4162538;28;20434;-63
2021/05/21 06:17:10;;;;;;;5.70;2.05;;;23.40;73.20;;;;;;4155981;28;20905;-64
2021/05/21 06:19:11;;;;;;;5.10;2.47;;;23.30;73.50;;;;;;4155947;28;20033;-62
2021/05/21 06:21:12;;;;;;;3.85;1.60;;;23.10;74.50;;;;;;4161848;28;20072;-63
2021/05/21 06:23:14;;;;;;;3.13;1.63;;;23.20;73.90;;;;;;4155080;28;20037;-63
2021/05/21 06:25:18;;;;;;;6.05;2.10;;;23.10;73.20;;;;;;4156084;28;20042;-68
2021/05/21 06:27:24;;;;;;;2.63;1.33;;;23.00;72.90;;;;;;4156168;28;20038;-64
2021/05/21 06:29:26;;;;;;;6.35;1.60;;;22.90;71.80;;;;;;4155278;28;20021;-64
2021/05/21 06:31:27;;;;;;;4.70;2.05;;;23.10;71.60;;;;;;4154498;28;20107;-62
2021/05/21 06:33:29;;;;;;;3.08;1.52;;;23.40;71.10;;;;;;4155436;28;20021;-63
2021/05/21 06:35:30;;;;;;;2.50;1.88;;;23.50;70.20;;;;;;4155994;28;20037;-64
2021/05/21 06:37:32;;;;;;;3.38;1.27;;;23.40;69.60;;;;;;4157334;28;20490;-64
2021/05/21 06:39:33;;;;;;;1.40;1.02;;;23.50;69.60;;;;;;4156383;28;20029;-63
2021/05/21 06:41:34;;;;;;;4.35;1.60;;;23.60;68.00;;;;;;4156541;28;20033;-64
2021/05/21 06:43:35;;;;;;;6.50;1.70;;;22.90;68.00;;;;;;4152971;28;20033;-65
2021/05/21 06:45:41;;;;;;;2.88;1.23;;;22.50;68.80;;;;;;4151084;28;20474;-69
2021/05/21 06:47:43;;;;;;;1.48;1.38;;;22.50;68.70;;;;;;4154376;28;20375;-71
2021/05/21 06:49:47;;;;;;;2.92;1.20;;;22.50;68.60;;;;;;4155598;28;20073;-64
2021/05/21 06:51:48;;;;;;;3.95;1.70;;;22.30;68.70;;;;;;4153584;28;20049;-65
2021/05/21 06:53:49;;;;;;;1.92;1.08;;;22.20;69.00;;;;;;4150874;28;20096;-69
2021/05/21 06:55:50;;;;;;;1.27;1.00;;;22.50;68.60;;;;;;4151822;28;20068;-63
2021/05/21 06:57:52;;;;;;;4.97;1.00;;;22.60;68.20;;;;;;4150809;28;20038;-71
2021/05/21 06:59:53;;;;;;;2.65;1.40;;;22.80;67.50;;;;;;4152708;28;20796;-70
2021/05/21 07:01:55;;;;;;;3.88;1.38;;;22.10;67.10;;;;;;4151339;28;20331;-65
2021/05/21 07:03:57;;;;;;;5.38;1.40;;;22.00;68.20;;;;;;4150813;28;20375;-64
2021/05/21 07:05:59;;;;;;;8.93;2.78;;;21.90;68.20;;;;;;4151148;28;20084;-64
2021/05/21 07:08:00;;;;;;;1.83;1.23;;;21.10;68.90;;;;;;4152403;28;20030;-63
2021/05/21 07:10:01;;;;;;;4.47;1.42;;;20.70;70.10;;;;;;4151283;28;20045;-67
2021/05/21 07:12:03;;;;;;;3.90;1.67;;;20.50;71.10;;;;;;4151342;28;20041;-65
2021/05/21 07:14:04;;;;;;;3.00;0.80;;;20.40;71.50;;;;;;4151181;28;20119;-63
2021/05/21 07:16:05;;;;;;;5.90;1.20;;;19.90;71.80;;;;;;4151117;28;20049;-68
2021/05/21 07:18:07;;;;;;;6.38;1.50;;;19.60;72.60;;;;;;4150640;28;20045;-64
2021/05/21 07:20:11;;;;;;;6.70;1.42;;;19.30;73.20;;;;;;4152853;28;20103;-64
2021/05/21 07:22:12;;;;;;;4.57;1.50;;;19.00;73.80;;;;;;4154825;28;20502;-64
2021/05/21 07:24:14;;;;;;;4.38;1.13;;;18.70;74.80;;;;;;4156436;28;20033;-64
2021/05/21 07:26:15;;;;;;;3.38;1.02;;;19.00;75.70;;;;;;4156497;28;20428;-65
2021/05/21 07:28:16;;;;;;;2.90;1.08;;;19.70;75.40;;;;;;4155827;28;20025;-69
2021/05/21 07:30:18;;;;;;;1.38;0.95;;;20.40;74.30;;;;;;4151619;28;20572;-72
2021/05/21 07:32:19;;;;;;;6.07;1.60;;;20.80;72.90;;;;;;4153979;28;20107;-70
2021/05/21 07:34:20;;;;;;;4.85;1.55;;;21.10;71.80;;;;;;4151342;28;20087;-66
2021/05/21 07:36:23;;;;;;;2.00;1.10;;;21.20;71.00;;;;;;4151530;28;20029;-74
2021/05/21 07:38:24;;;;;;;7.15;1.42;;;21.30;70.30;;;;;;4153463;28;20025;-67
2021/05/21 07:40:25;;;;;;;6.38;1.52;;;21.10;70.30;;;;;;4154720;28;20132;-63
2021/05/21 07:42:27;;;;;;;2.28;1.25;;;20.50;70.00;;;;;;4151190;28;20087;-66
2021/05/21 07:44:29;;;;;;;3.72;2.78;;;19.90;69.70;;;;;;4149982;28;20855;-62
2021/05/21 07:46:30;;;;;;;3.55;1.38;;;19.70;70.40;;;;;;4151163;28;20071;-68
2021/05/21 07:48:31;;;;;;;4.18;1.08;;;19.60;70.60;;;;;;4150458;28;20033;-66
2021/05/21 07:50:38;;;;;;;3.13;1.45;;;19.30;71.20;;;;;;4151098;28;20099;-67
2021/05/21 07:52:39;;;;;;;4.45;1.08;;;19.20;71.50;;;;;;4151507;28;20099;-62
2021/05/21 07:54:40;;;;;;;1.13;1.00;;;19.10;71.90;;;;;;4154597;28;20091;-63
2021/05/21 07:56:41;;;;;;;1.75;1.40;;;19.00;71.90;;;;;;4155219;28;20483;-66
2021/05/21 07:58:42;;;;;;;3.55;1.40;;;18.90;71.90;;;;;;4153960;28;20045;-63
2021/05/21 08:00:45;;;;;;;3.47;1.25;;;19.00;72.50;;;;;;4155069;28;20041;-62
2021/05/21 08:02:46;;;;;;;5.53;1.20;;;19.60;73.00;;;;;;4154292;28;20643;-62
2021/05/21 08:04:48;;;;;;;8.93;2.17;;;20.10;72.80;;;;;;4154611;28;20052;-63
2021/05/21 08:06:49;;;;;;;4.18;1.60;;;20.40;71.90;;;;;;4154313;28;20041;-62
2021/05/21 08:08:50;;;;;;;1.40;1.05;;;20.30;70.80;;;;;;4155121;28;20393;-63
2021/05/21 08:10:52;;;;;;;2.88;1.10;;;20.30;70.80;;;;;;4154535;28;20498;-63
2021/05/21 08:12:54;;;;;;;6.30;1.60;;;20.30;71.00;;;;;;4154950;28;20440;-64
2021/05/21 08:14:55;;;;;;;5.38;2.42;;;20.50;71.20;;;;;;4154310;28;20037;-66
2021/05/21 08:16:56;;;;;;;3.50;1.60;;;20.60;70.20;;;;;;4152715;28;20041;-71
2021/05/21 08:18:58;;;;;;;3.03;1.30;;;20.50;69.90;;;;;;4154276;28;20037;-63
2021/05/21 08:20:59;;;;;;;5.68;1.15;;;20.10;68.60;;;;;;4154505;28;20131;-60
2021/05/21 08:23:00;;;;;;;5.28;1.63;;;20.00;69.30;;;;;;4154956;28;20033;-60
2021/05/21 08:25:01;;;;;;;5.40;1.65;;;20.50;70.50;;;;;;4154087;28;20049;-67
2021/05/21 08:27:02;;;;;;;15.73;2.92;;;20.50;70.00;;;;;;4154521;28;20079;-64
2021/05/21 08:29:04;;;;;;;1.50;1.40;;;20.50;70.10;;;;;;4154747;28;20080;-66
2021/05/21 08:31:05;;;;;;;3.72;1.15;;;20.50;70.20;;;;;;4154784;28;20049;-70
2021/05/21 08:33:08;;;;;;;5.80;1.63;;;20.40;69.20;;;;;;4154587;28;20082;-68
2021/05/21 08:35:10;;;;;;;6.85;1.40;;;20.00;68.50;;;;;;4154265;28;20041;-75
2021/05/21 08:37:11;;;;;;;3.17;1.42;;;19.90;68.80;;;;;;4153452;28;20075;-74
2021/05/21 08:39:13;;;;;;;2.83;1.58;;;19.90;69.80;;;;;;4154788;28;20084;-63
2021/05/21 08:41:16;;;;;;;2.45;1.13;;;20.20;70.70;;;;;;4154504;28;20897;-62
2021/05/21 08:43:17;;;;;;;3.75;1.50;;;20.10;69.70;;;;;;4152687;28;20096;-61
2021/05/21 08:45:20;;;;;;;1.75;1.20;;;20.30;69.50;;;;;;4154214;28;20045;-65
2021/05/21 08:47:21;;;;;;;1.10;1.00;;;20.60;69.20;;;;;;4154622;28;20144;-63
2021/05/21 08:49:23;;;;;;;1.55;1.10;;;20.80;68.60;;;;;;4153763;28;20413;-61
2021/05/21 08:51:27;;;;;;;2.85;1.10;;;20.90;68.10;;;;;;4153663;28;20095;-62
2021/05/21 08:53:28;;;;;;;9.73;1.67;;;20.80;66.30;;;;;;4152378;28;20095;-62
2021/05/21 08:55:29;;;;;;;2.65;1.30;;;20.70;67.00;;;;;;4153594;28;20025;-60
2021/05/21 08:57:31;;;;;;;2.10;1.38;;;20.60;67.30;;;;;;4151724;28;20107;-63
2021/05/21 08:59:33;;;;;;;2.45;0.70;;;20.60;68.80;;;;;;4154454;28;20037;-65
2021/05/21 09:01:53;;;;;;;3.75;1.20;;;20.90;68.40;;;;;;4153656;28;20037;-61
2021/05/21 09:04:00;;;;;;;3.42;1.30;;;21.00;65.30;;;;;;4153451;28;20091;-62
2021/05/21 09:06:14;;;;;;;5.43;1.27;;;20.90;68.10;;;;;;4153826;28;20168;-61
2021/05/21 09:08:33;;;;;;;2.15;1.13;;;20.80;68.90;;;;;;4154231;28;20472;-63
2021/05/21 09:10:44;;;;;;;1.08;0.90;;;21.00;66.00;;;;;;4153476;28;20053;-61
2021/05/21 09:12:49;;;;;;;3.30;1.35;;;20.80;68.20;;;;;;4153649;28;20119;-61
2021/05/21 09:15:13;;;;;;;6.78;1.60;;;20.80;68.40;;;;;;4154199;28;20037;-62
2021/05/21 09:17:24;;;;;;;7.03;1.65;;;20.70;66.90;;;;;;4154512;28;20041;-62
2021/05/21 09:19:27;;;;;;;5.05;1.42;;;20.80;68.60;;;;;;4153574;28;20053;-62
2021/05/21 09:21:47;;;;;;;4.03;1.00;;;20.80;69.70;;;;;;4154159;28;20017;-62
2021/05/21 09:24:06;;;;;;;3.53;1.08;;;20.70;68.70;;;;;;4154162;28;20029;-61
2021/05/21 09:26:07;;;;;;;0.90;0.70;;;20.60;67.50;;;;;;4154822;28;20124;-62
2021/05/21 09:28:33;;;;;;;3.40;0.88;;;20.50;69.00;;;;;;4153521;28;20422;-60
2021/05/21 09:30:34;;;;;;;7.53;1.88;;;20.70;66.60;;;;;;4154368;28;20034;-64
2021/05/21 09:32:35;;;;;;;9.60;1.73;;;20.30;68.30;;;;;;4154087;28;20034;-62
2021/05/21 09:34:36;;;;;;;4.38;1.10;;;19.80;68.60;;;;;;4154336;28;20029;-62
2021/05/21 09:36:39;;;;;;;3.97;1.52;;;19.70;69.20;;;;;;4153472;28;20482;-64
2021/05/21 09:38:48;;;;;;;2.17;0.95;;;19.80;69.90;;;;;;4152790;28;20033;-63
2021/05/21 09:40:49;;;;;;;4.80;2.00;;;19.30;71.00;;;;;;4153276;28;20057;-62
2021/05/21 09:42:50;;;;;;;6.57;1.73;;;19.30;73.00;;;;;;4153804;28;20041;-62
2021/05/21 09:44:51;;;;;;;3.10;0.90;;;19.20;73.70;;;;;;4156153;28;20518;-62
2021/05/21 09:46:53;;;;;;;3.05;1.08;;;19.20;73.70;;;;;;4156835;28;20037;-64
2021/05/21 09:48:55;;;;;;;6.63;1.10;;;19.20;73.60;;;;;;4156556;28;20030;-61
2021/05/21 09:51:00;;;;;;;6.10;1.00;;;19.20;73.50;;;;;;4155843;28;20046;-61
2021/05/21 09:53:23;;;;;;;1.65;0.88;;;19.20;72.60;;;;;;4154925;28;20103;-61
2021/05/21 09:55:32;;;;;;;2.50;1.05;;;19.10;71.60;;;;;;4153859;28;20056;-63
2021/05/21 09:57:35;;;;;;;1.77;0.73;;;19.10;72.70;;;;;;4151728;28;20092;-73
2021/05/21 09:59:45;;;;;;;2.15;0.73;;;19.10;72.60;;;;;;4159021;28;20489;-61
2021/05/21 10:01:46;;;;;;;1.98;1.08;;;19.10;70.70;;;;;;4156999;28;20033;-63
2021/05/21 10:03:57;;;;;;;6.65;2.10;;;19.10;71.20;;;;;;4156850;28;20452;-66
2021/05/21 10:05:59;;;;;;;5.13;0.70;;;19.10;70.20;;;;;;4156632;28;20099;-68
2021/05/21 10:08:00;;;;;;;2.00;0.60;;;19.30;69.60;;;;;;4155380;28;20084;-63
2021/05/21 10:10:02;;;;;;;2.25;0.90;;;19.50;67.90;;;;;;4156908;28;20037;-62
2021/05/21 10:12:04;;;;;;;1.25;0.45;;;19.50;66.90;;;;;;4156950;28;20037;-62
2021/05/21 10:14:08;;;;;;;3.88;0.70;;;19.70;67.20;;;;;;4156604;28;20087;-66
2021/05/21 10:16:11;;;;;;;3.05;1.02;;;19.80;68.40;;;;;;4156379;28;20040;-67
2021/05/21 10:18:15;;;;;;;9.30;1.23;;;20.00;68.90;;;;;;4157579;28;20042;-61
2021/05/21 10:20:18;;;;;;;6.88;2.13;;;20.10;68.50;;;;;;4156033;28;20033;-66
2021/05/21 10:22:33;;;;;;;5.03;1.33;;;20.00;68.00;;;;;;4157183;28;20021;-63
2021/05/21 10:24:36;;;;;;;2.22;0.65;;;20.10;67.30;;;;;;4156261;28;20025;-63
2021/05/21 10:26:39;;;;;;;3.33;0.75;;;20.10;67.80;;;;;;4157216;28;20072;-63
2021/05/21 10:28:46;;;;;;;0.80;0.80;;;20.20;67.30;;;;;;4156109;28;20425;-62
2021/05/21 10:30:50;;;;;;;6.55;1.10;;;20.30;67.10;;;;;;4155521;28;20060;-61
2021/05/21 10:33:15;;;;;;;0.70;0.70;;;20.30;65.00;;;;;;4155754;28;20037;-63
2021/05/21 10:35:21;;;;;;;2.25;1.00;;;20.10;65.50;;;;;;4148581;28;20408;-63
2021/05/21 10:37:35;;;;;;;2.25;0.80;;;20.10;66.50;;;;;;4155669;28;20055;-62
2021/05/21 10:40:16;;;;;;;2.67;0.77;;;19.90;65.70;;;;;;4156817;28;20083;-63
2021/05/21 10:42:18;;;;;;;;;;;19.80;65.70;;;;;;4145469;28;20522;-62